createdAt,value
2019-05-23T00:00:44.858Z,97564.33
2019-05-23T00:03:16.124Z,97561.34
2019-05-23T00:05:49.870Z,97564.31
2019-05-23T00:08:24.206Z,97555.28
2019-05-23T00:11:01.787Z,97557.81
2019-05-23T00:13:57.668Z,97558.91
2019-05-23T00:16:28.697Z,97558.81
2019-05-23T00:18:58.711Z,97565.33
2019-05-23T00:21:28.560Z,97554.55
2019-05-23T00:24:00.148Z,97558.98
2019-05-23T00:26:31.250Z,97560.66
2019-05-23T00:29:09.944Z,97561.26
2019-05-23T00:31:45.233Z,97557.67
2019-05-23T00:34:15.265Z,97567.72
2019-05-23T00:36:46.153Z,97560.77
2019-05-23T00:39:16.832Z,97556.56
2019-05-23T00:41:46.903Z,97555.02
2019-05-23T00:44:16.843Z,97555.99
2019-05-23T00:46:46.523Z,97549.98
2019-05-23T00:49:16.919Z,97559.69
2019-05-23T00:51:47.507Z,97555.25
2019-05-23T00:54:18.188Z,97554.50
2019-05-23T00:56:49.548Z,97553.96
2019-05-23T00:59:27.306Z,97551.65
2019-05-23T01:01:51.190Z,97560.64
2019-05-23T01:04:21.972Z,97557.66
2019-05-23T01:06:53.179Z,97554.30
2019-05-23T01:09:25.275Z,97548.56
2019-05-23T01:11:55.323Z,97557.55
2019-05-23T01:14:25.792Z,97551.31
2019-05-23T01:16:55.558Z,97557.54
2019-05-23T01:19:25.650Z,97562.20
2019-05-23T01:22:03.028Z,97555.49
2019-05-23T01:24:35.226Z,97556.32
2019-05-23T01:27:05.976Z,97561.37
2019-05-23T01:29:49.475Z,97554.91
2019-05-23T01:32:32.982Z,97558.48
2019-05-23T01:35:03.038Z,97557.27
2019-05-23T01:37:34.567Z,97567.09
2019-05-23T01:40:05.379Z,97569.12
2019-05-23T01:42:35.546Z,97567.93
2019-05-23T01:45:06.157Z,97562.19
2019-05-23T01:47:35.858Z,97568.79
2019-05-23T01:50:06.711Z,97551.64
2019-05-23T01:52:36.849Z,97560.04
2019-05-23T01:55:07.983Z,97563.59
2019-05-23T01:57:38.015Z,97567.70
2019-05-23T02:00:11.349Z,97563.25
2019-05-23T02:02:41.909Z,97566.02
2019-05-23T02:05:11.591Z,97570.91
2019-05-23T02:07:41.684Z,97567.06
2019-05-23T02:10:13.157Z,97566.01
2019-05-23T02:12:42.884Z,97563.73
2019-05-23T02:15:12.673Z,97575.86
2019-05-23T02:17:42.429Z,97574.84
2019-05-23T02:20:14.199Z,97574.17
2019-05-23T02:22:44.113Z,97568.73
2019-05-23T02:25:16.761Z,97570.80
2019-05-23T02:27:47.479Z,97576.30
2019-05-23T02:30:33.882Z,97582.38
2019-05-23T02:32:52.725Z,97582.73
2019-05-23T02:35:22.743Z,97583.58
2019-05-23T02:38:17.154Z,97575.17
2019-05-23T02:40:56.190Z,97577.05
2019-05-23T02:43:26.382Z,97575.73
2019-05-23T02:46:00.017Z,97579.25
2019-05-23T02:48:35.554Z,97569.21
2019-05-23T02:51:08.623Z,97554.39
2019-05-23T02:53:38.868Z,97552.31
2019-05-23T02:56:11.620Z,97560.06
2019-05-23T02:59:31.637Z,97563.64
2019-05-23T03:02:47.946Z,97566.73
2019-05-23T03:05:19.355Z,97561.13
2019-05-23T03:07:50.385Z,97566.05
2019-05-23T03:10:22.887Z,97565.44
2019-05-23T03:12:52.656Z,97565.96
2019-05-23T03:15:24.741Z,97561.81
2019-05-23T03:17:56.714Z,97566.73
2019-05-23T03:20:29.341Z,97565.38
2019-05-23T03:23:06.026Z,97563.01
2019-05-23T03:26:20.832Z,97562.17
2019-05-23T03:28:50.250Z,97562.94
2019-05-23T03:31:32.125Z,97560.64
2019-05-23T03:34:01.032Z,97560.56
2019-05-23T03:36:30.651Z,97567.80
2019-05-23T03:39:00.121Z,97562.35
2019-05-23T03:41:30.262Z,97555.48
2019-05-23T03:44:01.484Z,97555.69
2019-05-23T03:46:32.261Z,97564.58
2019-05-23T03:49:02.033Z,97559.57
2019-05-23T03:51:31.731Z,97560.50
2019-05-23T03:54:02.280Z,97561.81
2019-05-23T03:56:31.644Z,97548.34
2019-05-23T03:59:01.859Z,97561.47
2019-05-23T04:01:47.091Z,97570.48
2019-05-23T04:04:04.999Z,97573.44
2019-05-23T04:06:35.947Z,97565.86
2019-05-23T04:09:07.932Z,97570.72
2019-05-23T04:11:37.559Z,97574.47
2019-05-23T04:14:07.663Z,97571.72
2019-05-23T04:16:37.382Z,97573.23
2019-05-23T04:19:06.902Z,97571.81
2019-05-23T04:21:36.397Z,97560.47
2019-05-23T04:24:06.280Z,97566.15
2019-05-23T04:26:35.837Z,97579.27
2019-05-23T04:29:05.301Z,97580.08
2019-05-23T04:31:35.059Z,97578.27
2019-05-23T04:34:04.581Z,97581.95
2019-05-23T04:36:34.041Z,97580.85
2019-05-23T04:39:05.042Z,97576.44
2019-05-23T04:41:34.591Z,97579.72
2019-05-23T04:44:06.182Z,97582.89
2019-05-23T04:46:36.050Z,97580.83
2019-05-23T04:49:06.582Z,97579.82
2019-05-23T04:51:36.041Z,97585.89
2019-05-23T04:54:06.373Z,97586.25
2019-05-23T04:56:35.799Z,97585.77
2019-05-23T04:59:05.762Z,97583.15
2019-05-23T05:01:35.550Z,97588.59
2019-05-23T05:04:06.401Z,97590.23
2019-05-23T05:06:36.104Z,97584.25
2019-05-23T05:09:08.621Z,97588.85
2019-05-23T05:11:38.679Z,97586.16
2019-05-23T05:14:08.424Z,97584.30
2019-05-23T05:16:38.075Z,97586.05
2019-05-23T05:19:07.824Z,97595.92
2019-05-23T05:21:38.296Z,97593.83
2019-05-23T05:24:07.675Z,97597.58
2019-05-23T05:26:37.221Z,97595.62
2019-05-23T05:29:07.076Z,97601.22
2019-05-23T05:31:36.543Z,97602.64
2019-05-23T05:34:06.303Z,97603.65
2019-05-23T05:36:35.795Z,97603.67
2019-05-23T05:39:07.904Z,97606.84
2019-05-23T05:41:37.685Z,97606.17
2019-05-23T05:44:07.155Z,97610.05
2019-05-23T05:46:36.780Z,97611.91
2019-05-23T05:49:07.025Z,97619.69
2019-05-23T05:51:36.977Z,97615.94
2019-05-23T05:54:07.509Z,97612.58
2019-05-23T05:56:36.961Z,97616.26
2019-05-23T05:59:06.446Z,97611.37
2019-05-23T06:01:36.520Z,97614.65
2019-05-23T06:04:07.119Z,97617.52
2019-05-23T06:06:42.187Z,97617.86
2019-05-23T06:09:29.498Z,97614.03
2019-05-23T06:11:58.904Z,97614.54
2019-05-23T06:14:28.321Z,97620.05
2019-05-23T06:16:58.391Z,97626.14
2019-05-23T06:19:27.980Z,97624.61
2019-05-23T06:21:57.360Z,97628.77
2019-05-23T06:24:41.656Z,97623.57
2019-05-23T06:26:58.796Z,97624.33
2019-05-23T06:29:28.473Z,97618.12
2019-05-23T06:31:58.326Z,97616.88
2019-05-23T06:34:27.852Z,97613.50
2019-05-23T06:36:57.261Z,97623.63
2019-05-23T06:39:26.864Z,97618.09
2019-05-23T06:41:57.081Z,97625.13
2019-05-23T06:44:26.576Z,97621.69
2019-05-23T06:46:56.299Z,97621.42
2019-05-23T06:49:25.679Z,97619.64
2019-05-23T06:51:55.353Z,97622.75
2019-05-23T06:54:24.969Z,97631.63
2019-05-23T06:56:54.423Z,97631.16
2019-05-23T06:59:23.927Z,97627.45
2019-05-23T07:01:53.402Z,97623.25
2019-05-23T07:04:22.853Z,97622.84
2019-05-23T07:06:52.415Z,97624.02
2019-05-23T07:09:22.196Z,97622.95
2019-05-23T07:11:55.770Z,97622.37
2019-05-23T07:14:25.239Z,97623.24
2019-05-23T07:16:54.734Z,97622.66
2019-05-23T07:19:24.243Z,97627.88
2019-05-23T07:21:53.818Z,97620.05
2019-05-23T07:24:24.162Z,97621.60
2019-05-23T07:26:53.547Z,97619.16
2019-05-23T07:29:23.503Z,97615.35
2019-05-23T07:31:53.300Z,97617.89
2019-05-23T07:34:23.818Z,97619.74
2019-05-23T07:36:54.407Z,97616.78
2019-05-23T07:39:23.868Z,97617.28
2019-05-23T07:41:53.624Z,97611.84
2019-05-23T07:44:23.482Z,97612.20
2019-05-23T07:46:53.114Z,97607.27
2019-05-23T07:49:23.147Z,97614.48
2019-05-23T07:51:52.621Z,97612.20
2019-05-23T07:54:40.985Z,97609.42
2019-05-23T07:57:12.956Z,97606.11
2019-05-23T07:59:42.431Z,97614.13
2019-05-23T08:02:25.498Z,97608.46
2019-05-23T08:04:53.375Z,97608.66
2019-05-23T08:07:23.680Z,97605.49
2019-05-23T08:09:53.380Z,97610.39
2019-05-23T08:12:23.045Z,97605.14
2019-05-23T08:14:52.619Z,97601.83
2019-05-23T08:17:22.392Z,97599.67
2019-05-23T08:19:52.166Z,97596.73
2019-05-23T08:22:21.718Z,97601.24
2019-05-23T08:24:51.600Z,97599.34
2019-05-23T08:27:21.348Z,97601.02
2019-05-23T08:29:51.040Z,97594.67
2019-05-23T08:32:20.524Z,97598.72
2019-05-23T08:34:50.219Z,97595.64
2019-05-23T08:37:20.058Z,97596.30
2019-05-23T08:39:49.900Z,97601.32
2019-05-23T08:42:20.006Z,97600.62
2019-05-23T08:44:49.552Z,97594.44
2019-05-23T08:47:19.800Z,97588.96
2019-05-23T08:49:49.655Z,97598.73
2019-05-23T08:52:19.196Z,97598.08
2019-05-23T08:54:51.287Z,97581.20
2019-05-23T08:57:20.992Z,97592.55
2019-05-23T08:59:51.099Z,97589.08
2019-05-23T09:02:20.545Z,97582.39
2019-05-23T09:05:03.739Z,97583.19
2019-05-23T09:07:21.517Z,97578.73
2019-05-23T09:09:51.058Z,97586.95
2019-05-23T09:12:20.791Z,97575.09
2019-05-23T09:14:50.546Z,97582.13
2019-05-23T09:17:20.237Z,97581.63
2019-05-23T09:19:49.859Z,97577.52
2019-05-23T09:22:19.700Z,97579.66
2019-05-23T09:24:49.218Z,97580.16
2019-05-23T09:27:18.723Z,97572.67
2019-05-23T09:29:48.381Z,97571.77
2019-05-23T09:32:18.059Z,97577.53
2019-05-23T09:34:47.611Z,97570.27
2019-05-23T09:37:18.872Z,97565.72
2019-05-23T09:39:49.797Z,97569.89
2019-05-23T09:42:19.429Z,97570.38
2019-05-23T09:44:49.056Z,97576.81
2019-05-23T09:47:18.564Z,97576.61
2019-05-23T09:49:55.355Z,97570.38
2019-05-23T09:52:20.335Z,97565.04
2019-05-23T09:54:49.954Z,97567.45
2019-05-23T09:57:19.666Z,97563.86
2019-05-23T09:59:49.223Z,97556.59
2019-05-23T10:02:18.866Z,97558.36
2019-05-23T10:04:48.471Z,97557.13
2019-05-23T10:07:18.003Z,97552.40
2019-05-23T10:09:47.534Z,97552.14
2019-05-23T10:12:17.123Z,97553.95
2019-05-23T10:14:46.675Z,97546.09
2019-05-23T10:17:16.205Z,97543.44
2019-05-23T10:19:45.836Z,97548.02
2019-05-23T10:22:15.747Z,97542.09
2019-05-23T10:24:45.245Z,97552.82
2019-05-23T10:27:14.841Z,97548.33
2019-05-23T10:29:44.363Z,97544.69
2019-05-23T10:32:13.995Z,97545.91
2019-05-23T10:34:43.604Z,97545.40
2019-05-23T10:37:16.345Z,97532.63
2019-05-23T10:39:49.934Z,97540.80
2019-05-23T10:42:20.042Z,97537.30
2019-05-23T10:44:50.098Z,97533.88
2019-05-23T10:47:21.894Z,97530.81
2019-05-23T10:50:10.367Z,97528.54
2019-05-23T10:52:40.267Z,97529.51
2019-05-23T10:55:10.649Z,97527.48
2019-05-23T10:57:40.424Z,97521.95
2019-05-23T11:00:14.961Z,97521.89
2019-05-23T11:02:46.009Z,97516.19
2019-05-23T11:05:16.156Z,97523.52
2019-05-23T11:07:45.998Z,97515.87
2019-05-23T11:10:16.492Z,97512.58
2019-05-23T11:23:34.011Z,97505.20
2019-05-23T11:26:04.242Z,97515.39
2019-05-23T11:28:35.736Z,97507.03
2019-05-23T11:31:07.019Z,97507.55
2019-05-23T11:33:36.793Z,97504.05
2019-05-23T11:36:06.760Z,97508.66
2019-05-23T11:38:36.525Z,97505.41
2019-05-23T11:41:06.118Z,97500.91
2019-05-23T11:43:35.828Z,97504.59
2019-05-23T11:46:12.656Z,97497.42
2019-05-23T11:48:42.256Z,97503.91
2019-05-23T11:51:11.993Z,97485.17
2019-05-23T11:53:45.452Z,97485.69
2019-05-23T11:56:13.005Z,97490.51
2019-05-23T11:58:42.553Z,97481.93
2019-05-23T12:01:24.090Z,97479.07
2019-05-23T12:03:59.475Z,97481.22
2019-05-23T12:06:33.547Z,97466.11
2019-05-23T12:09:03.083Z,97461.94
2019-05-23T12:11:36.633Z,97461.90
2019-05-23T12:14:04.865Z,97459.05
2019-05-23T12:16:34.512Z,97453.44
2019-05-23T12:19:04.378Z,97449.05
2019-05-23T12:21:34.307Z,97457.47
2019-05-23T12:24:03.846Z,97460.59
2019-05-23T12:26:33.433Z,97457.16
2019-05-23T12:29:03.183Z,97450.73
2019-05-23T12:31:32.864Z,97445.11
2019-05-23T12:34:02.484Z,97444.91
2019-05-23T12:36:32.436Z,97437.72
2019-05-23T12:39:02.395Z,97448.58
2019-05-23T12:41:31.917Z,97442.56
2019-05-23T12:44:01.417Z,97438.84
2019-05-23T12:46:31.075Z,97430.42
2019-05-23T12:49:09.473Z,97432.65
2019-05-23T12:51:56.715Z,97431.59
2019-05-23T12:54:26.669Z,97431.80
2019-05-23T12:56:58.500Z,97432.20
2019-05-23T12:59:28.230Z,97430.45
2019-05-23T13:05:28.366Z,97433.20
2019-05-23T13:08:00.643Z,97425.02
2019-05-23T13:10:30.926Z,97426.75
2019-05-23T13:13:00.464Z,97420.70
2019-05-23T13:15:31.002Z,97413.16
2019-05-23T13:18:00.596Z,97414.75
2019-05-23T13:20:30.942Z,97405.19
2019-05-23T13:23:00.685Z,97409.03
2019-05-23T13:25:30.666Z,97413.75
2019-05-23T13:28:00.298Z,97412.02
2019-05-23T13:30:29.883Z,97406.65
2019-05-23T13:33:03.376Z,97410.48
2019-05-23T13:35:31.222Z,97406.53
2019-05-23T13:38:00.813Z,97398.62
2019-05-23T13:40:30.429Z,97397.92
2019-05-23T13:43:00.072Z,97393.98
2019-05-23T13:45:29.620Z,97395.94
2019-05-23T13:47:59.324Z,97393.00
2019-05-23T13:50:28.892Z,97388.16
2019-05-23T13:52:58.604Z,97392.74
2019-05-23T13:55:28.409Z,97384.00
2019-05-23T13:57:58.188Z,97386.40
2019-05-23T14:00:28.751Z,97381.00
2019-05-23T14:02:58.791Z,97381.95
2019-05-23T14:05:29.007Z,97382.89
2019-05-23T14:08:11.519Z,97382.45
2019-05-23T14:10:30.233Z,97390.45
2019-05-23T14:13:00.132Z,97381.22
2019-05-23T14:15:35.123Z,97378.84
2019-05-23T14:18:04.907Z,97375.91
2019-05-23T14:20:34.577Z,97372.46
2019-05-23T14:23:11.653Z,97375.34
2019-05-23T14:25:41.539Z,97364.07
2019-05-23T14:28:11.483Z,97367.62
2019-05-23T14:30:58.977Z,97367.44
2019-05-23T14:33:46.516Z,97370.73
2019-05-23T14:36:41.649Z,97366.24
2019-05-23T14:39:24.205Z,97366.06
2019-05-23T14:41:59.815Z,97357.06
2019-05-23T14:44:29.432Z,97354.78
2019-05-23T14:47:17.206Z,97353.11
2019-05-23T14:49:55.944Z,97356.09
2019-05-23T14:52:31.030Z,97353.17
2019-05-23T14:55:03.511Z,97348.52
2019-05-23T14:57:33.306Z,97346.98
2019-05-23T15:00:03.083Z,97351.52
2019-05-23T15:02:33.473Z,97342.09
2019-05-23T15:05:04.480Z,97341.56
2019-05-23T15:07:34.700Z,97342.67
2019-05-23T15:10:05.515Z,97335.08
2019-05-23T15:12:35.139Z,97338.32
2019-05-23T15:15:06.389Z,97334.44
2019-05-23T15:17:36.099Z,97336.38
2019-05-23T15:20:06.512Z,97331.56
2019-05-23T15:22:36.314Z,97338.36
2019-05-23T15:25:06.390Z,97329.88
2019-05-23T15:27:36.028Z,97329.98
2019-05-23T15:30:06.627Z,97325.65
2019-05-23T15:32:36.219Z,97327.90
2019-05-23T15:35:05.933Z,97320.03
2019-05-23T15:37:35.569Z,97318.33
2019-05-23T15:40:05.794Z,97320.66
2019-05-23T15:42:35.388Z,97312.36
2019-05-23T15:45:05.387Z,97314.15
2019-05-23T15:47:36.215Z,97311.47
2019-05-23T15:50:11.386Z,97313.66
2019-05-23T15:53:04.964Z,97314.47
2019-05-23T15:55:42.836Z,97309.71
2019-05-23T15:58:30.757Z,97318.88
2019-05-23T16:01:15.503Z,97309.78
2019-05-23T16:03:47.804Z,97307.39
2019-05-23T16:06:19.345Z,97304.34
2019-05-23T16:08:49.298Z,97302.74
2019-05-23T16:11:18.905Z,97307.03
2019-05-23T16:13:48.486Z,97301.38
2019-05-23T16:16:18.023Z,97295.45
2019-05-23T16:18:48.370Z,97297.98
2019-05-23T16:21:18.756Z,97293.11
2019-05-23T16:23:48.297Z,97289.01
2019-05-23T16:26:18.366Z,97290.77
2019-05-23T16:28:47.945Z,97294.11
2019-05-23T16:31:17.565Z,97288.26
2019-05-23T16:33:47.148Z,97286.30
2019-05-23T16:36:16.930Z,97289.25
2019-05-23T16:38:46.445Z,97280.92
2019-05-23T16:41:16.068Z,97288.72
2019-05-23T16:43:45.617Z,97289.66
2019-05-23T16:46:15.302Z,97294.92
2019-05-23T16:48:44.906Z,97290.23
2019-05-23T16:51:14.622Z,97291.66
2019-05-23T16:53:44.804Z,97295.86
2019-05-23T16:56:22.551Z,97287.59
2019-05-23T16:59:13.858Z,97291.00
2019-05-23T17:02:17.848Z,97299.69
2019-05-23T17:05:09.837Z,97298.75
2019-05-23T17:07:47.906Z,97293.06
2019-05-23T17:10:22.286Z,97289.14
2019-05-23T17:13:02.947Z,97286.30
2019-05-23T17:15:43.351Z,97290.17
2019-05-23T17:18:44.483Z,97283.50
2019-05-23T17:21:39.343Z,97286.61
2019-05-23T17:24:14.270Z,97290.69
2019-05-23T17:26:51.694Z,97286.04
2019-05-23T17:29:38.907Z,97281.69
2019-05-23T17:32:10.855Z,97278.42
2019-05-23T17:34:40.527Z,97274.00
2019-05-23T17:37:12.194Z,97278.73
2019-05-23T17:39:43.767Z,97272.50
2019-05-23T17:42:13.477Z,97278.25
2019-05-23T17:44:43.076Z,97276.59
2019-05-23T17:47:12.795Z,97273.31
2019-05-23T17:49:42.387Z,97277.22
2019-05-23T17:52:12.695Z,97274.80
2019-05-23T17:54:42.378Z,97273.31
2019-05-23T17:57:11.971Z,97271.66
2019-05-23T17:59:41.895Z,97270.12
2019-05-23T18:02:12.859Z,97275.92
2019-05-23T18:04:42.366Z,97279.20
2019-05-23T18:07:12.824Z,97274.75
2019-05-23T18:09:42.323Z,97280.38
2019-05-23T18:12:12.701Z,97278.06
2019-05-23T18:14:43.559Z,97275.45
2019-05-23T18:17:13.232Z,97274.66
2019-05-23T18:19:43.173Z,97275.98
2019-05-23T18:22:14.050Z,97280.05
2019-05-23T18:24:43.581Z,97286.70
2019-05-23T18:27:13.783Z,97281.80
2019-05-23T18:29:43.736Z,97283.14
2019-05-23T18:32:18.592Z,97275.91
2019-05-23T18:34:48.449Z,97283.11
2019-05-23T18:37:18.544Z,97283.94
2019-05-23T18:39:48.392Z,97288.58
2019-05-23T18:42:18.616Z,97290.03
2019-05-23T18:44:48.122Z,97287.69
2019-05-23T18:47:29.278Z,97289.84
2019-05-23T18:49:59.073Z,97296.47
2019-05-23T18:52:28.647Z,97296.11
2019-05-23T18:54:58.340Z,97300.27
2019-05-23T18:57:28.325Z,97293.55
2019-05-23T18:59:57.981Z,97292.88
2019-05-23T19:02:27.862Z,97297.48
2019-05-23T19:04:58.032Z,97295.91
2019-05-23T19:07:28.003Z,97292.13
2019-05-23T19:09:57.664Z,97304.59
2019-05-23T19:12:27.234Z,97304.34
2019-05-23T19:14:56.965Z,97301.42
2019-05-23T19:17:26.595Z,97304.16
2019-05-23T19:19:58.349Z,97297.08
2019-05-23T19:22:28.429Z,97302.48
2019-05-23T19:24:58.297Z,97305.72
2019-05-23T19:27:27.824Z,97301.59
2019-05-23T19:29:57.808Z,97299.30
2019-05-23T19:32:27.410Z,97295.86
2019-05-23T19:34:57.075Z,97304.41
2019-05-23T19:37:27.261Z,97297.64
2019-05-23T19:39:56.770Z,97299.67
2019-05-23T19:42:26.285Z,97306.08
2019-05-23T19:44:55.849Z,97308.13
2019-05-23T19:47:27.249Z,97299.16
2019-05-23T19:49:56.827Z,97300.34
2019-05-23T19:52:26.761Z,97300.38
2019-05-23T19:54:56.756Z,97304.69
2019-05-23T19:57:26.623Z,97301.55
2019-05-23T19:59:56.153Z,97305.23
2019-05-23T20:02:44.717Z,97298.92
2019-05-23T20:05:22.697Z,97297.44
2019-05-23T20:07:52.373Z,97299.12
2019-05-23T20:10:23.931Z,97298.84
2019-05-23T20:13:12.854Z,97293.36
2019-05-23T20:15:45.589Z,97301.36
2019-05-23T20:18:14.315Z,97292.88
2019-05-23T20:20:44.010Z,97300.54
2019-05-23T20:23:16.028Z,97297.84
2019-05-23T20:25:45.233Z,97298.19
2019-05-23T20:28:14.881Z,97297.02
2019-05-23T20:31:04.657Z,97301.34
2019-05-23T20:33:34.415Z,97295.85
2019-05-23T20:36:06.870Z,97298.84
2019-05-23T20:38:36.465Z,97287.39
2019-05-23T20:41:06.192Z,97291.22
2019-05-23T20:43:35.913Z,97278.91
2019-05-23T20:46:05.617Z,97282.23
2019-05-23T20:48:36.355Z,97273.08
2019-05-23T20:51:06.072Z,97275.23
2019-05-23T20:53:35.853Z,97276.88
2019-05-23T20:56:05.732Z,97279.35
2019-05-23T20:58:35.531Z,97287.16
2019-05-23T21:01:18.913Z,97287.32
2019-05-23T21:03:49.563Z,97284.11
2019-05-23T21:06:19.184Z,97287.13
2019-05-23T21:08:48.825Z,97284.77
2019-05-23T21:11:18.537Z,97290.23
2019-05-23T21:13:48.260Z,97279.75
2019-05-23T21:16:17.894Z,97282.25
2019-05-23T21:18:49.977Z,97289.87
2019-05-23T21:21:18.846Z,97285.90
2019-05-23T21:23:48.674Z,97280.89
2019-05-23T21:26:18.304Z,97285.13
2019-05-23T21:28:47.869Z,97288.39
2019-05-23T21:31:21.996Z,97285.85
2019-05-23T21:33:51.717Z,97284.34
2019-05-23T21:36:21.521Z,97287.95
2019-05-23T21:38:51.148Z,97292.21
2019-05-23T21:41:20.770Z,97286.38
2019-05-23T21:43:52.330Z,97285.16
2019-05-23T21:46:21.997Z,97289.95
2019-05-23T21:48:51.627Z,97290.59
2019-05-23T21:51:21.517Z,97295.97
2019-05-23T21:53:51.149Z,97293.70
2019-05-23T21:56:20.772Z,97284.02
2019-05-23T21:58:50.392Z,97300.35
2019-05-23T22:01:41.442Z,97291.91
2019-05-23T22:04:45.271Z,97295.30
2019-05-23T22:07:15.213Z,97297.95
2019-05-23T22:09:45.310Z,97282.16
2019-05-23T22:12:15.232Z,97288.37
2019-05-23T22:14:45.408Z,97284.73
2019-05-23T22:17:15.080Z,97286.89
2019-05-23T22:19:44.713Z,97286.36
2019-05-23T22:22:14.334Z,97285.87
2019-05-23T22:24:43.967Z,97281.89
2019-05-23T22:27:14.950Z,97274.39
2019-05-23T22:29:44.641Z,97275.72
2019-05-23T22:32:16.006Z,97272.70
2019-05-23T22:34:59.444Z,97277.09
2019-05-23T22:37:30.255Z,97277.66
2019-05-23T22:39:59.880Z,97278.16
2019-05-23T22:42:30.148Z,97279.48
2019-05-23T22:44:59.851Z,97272.13
2019-05-23T22:47:29.839Z,97273.76
2019-05-23T22:49:59.446Z,97270.38
2019-05-23T22:52:29.165Z,97264.37
2019-05-23T22:54:58.759Z,97269.62
2019-05-23T22:57:28.367Z,97261.45
2019-05-23T22:59:58.031Z,97260.08
2019-05-23T23:02:27.797Z,97265.83
2019-05-23T23:04:57.641Z,97261.85
2019-05-23T23:07:27.318Z,97261.55
2019-05-23T23:09:56.836Z,97263.17
2019-05-23T23:12:26.531Z,97257.34
2019-05-23T23:14:56.146Z,97255.09
2019-05-23T23:17:25.712Z,97253.58
2019-05-23T23:19:55.398Z,97253.98
2019-05-23T23:22:25.030Z,97253.34
2019-05-23T23:24:54.660Z,97257.41
2019-05-23T23:27:24.262Z,97253.09
2019-05-23T23:29:53.794Z,97249.42
2019-05-23T23:32:23.448Z,97257.52
2019-05-23T23:34:53.291Z,97255.98
2019-05-23T23:37:23.076Z,97257.00
2019-05-23T23:39:52.603Z,97246.86
2019-05-23T23:42:22.365Z,97247.30
2019-05-23T23:44:51.276Z,97248.77
2019-05-23T23:47:38.555Z,97250.48
2019-05-23T23:50:26.097Z,97249.89
2019-05-23T23:53:13.515Z,97248.91
2019-05-23T23:56:00.955Z,97247.30
2019-05-23T23:58:30.018Z,97247.34
